sensor_id;sensor_type;location;lat;lon;timestamp;P1;durP1;ratioP1;P2;durP2;ratioP2
13571;SDS011;6857;53.484;10.216;2022-12-07T00:01:54;25.67;;;15.20;;
13571;SDS011;6857;53.484;10.216;2022-12-07T00:04:20;25.57;;;15.93;;
13571;SDS011;6857;53.484;10.216;2022-12-07T00:06:47;26.00;;;15.77;;
13571;SDS011;6857;53.484;10.216;2022-12-07T00:09:16;22.40;;;14.73;;
13571;SDS011;6857;53.484;10.216;2022-12-07T00:11:43;23.17;;;15.47;;
13571;SDS011;6857;53.484;10.216;2022-12-07T00:14:10;22.07;;;14.77;;
13571;SDS011;6857;53.484;10.216;2022-12-07T00:16:37;22.90;;;14.50;;
13571;SDS011;6857;53.484;10.216;2022-12-07T00:19:03;22.13;;;14.67;;
13571;SDS011;6857;53.484;10.216;2022-12-07T00:21:31;21.80;;;14.37;;
13571;SDS011;6857;53.484;10.216;2022-12-07T00:23:57;25.07;;;15.27;;
13571;SDS011;6857;53.484;10.216;2022-12-07T00:26:25;23.33;;;14.97;;
13571;SDS011;6857;53.484;10.216;2022-12-07T00:28:52;22.00;;;14.23;;
13571;SDS011;6857;53.484;10.216;2022-12-07T00:31:19;22.23;;;13.73;;
13571;SDS011;6857;53.484;10.216;2022-12-07T00:33:45;22.23;;;14.47;;
13571;SDS011;6857;53.484;10.216;2022-12-07T00:36:12;20.97;;;13.60;;
13571;SDS011;6857;53.484;10.216;2022-12-07T00:38:39;22.23;;;14.30;;
13571;SDS011;6857;53.484;10.216;2022-12-07T00:41:06;18.13;;;13.23;;
13571;SDS011;6857;53.484;10.216;2022-12-07T00:43:32;22.90;;;14.23;;
13571;SDS011;6857;53.484;10.216;2022-12-07T00:45:58;21.53;;;14.10;;
13571;SDS011;6857;53.484;10.216;2022-12-07T00:48:24;23.47;;;13.57;;
13571;SDS011;6857;53.484;10.216;2022-12-07T00:50:50;21.07;;;14.13;;
13571;SDS011;6857;53.484;10.216;2022-12-07T00:53:17;19.83;;;13.53;;
13571;SDS011;6857;53.484;10.216;2022-12-07T00:55:43;20.67;;;14.00;;
13571;SDS011;6857;53.484;10.216;2022-12-07T00:58:09;20.20;;;13.30;;
13571;SDS011;6857;53.484;10.216;2022-12-07T01:00:37;21.60;;;14.67;;
13571;SDS011;6857;53.484;10.216;2022-12-07T01:03:03;20.53;;;14.03;;
13571;SDS011;6857;53.484;10.216;2022-12-07T01:05:29;21.77;;;13.60;;
13571;SDS011;6857;53.484;10.216;2022-12-07T01:07:55;20.97;;;14.27;;
13571;SDS011;6857;53.484;10.216;2022-12-07T01:10:21;22.87;;;13.00;;
13571;SDS011;6857;53.484;10.216;2022-12-07T01:12:47;27.17;;;14.87;;
13571;SDS011;6857;53.484;10.216;2022-12-07T01:15:13;19.60;;;12.77;;
13571;SDS011;6857;53.484;10.216;2022-12-07T01:17:39;20.03;;;12.53;;
13571;SDS011;6857;53.484;10.216;2022-12-07T01:20:05;20.90;;;12.87;;
13571;SDS011;6857;53.484;10.216;2022-12-07T01:22:35;19.37;;;12.70;;
13571;SDS011;6857;53.484;10.216;2022-12-07T01:25:02;16.57;;;11.60;;
13571;SDS011;6857;53.484;10.216;2022-12-07T01:27:29;15.53;;;10.77;;
13571;SDS011;6857;53.484;10.216;2022-12-07T01:29:54;25.57;;;12.63;;
13571;SDS011;6857;53.484;10.216;2022-12-07T01:32:20;17.07;;;10.73;;
13571;SDS011;6857;53.484;10.216;2022-12-07T01:34:47;17.23;;;11.40;;
13571;SDS011;6857;53.484;10.216;2022-12-07T01:37:13;16.90;;;10.27;;
13571;SDS011;6857;53.484;10.216;2022-12-07T01:39:39;17.53;;;11.33;;
13571;SDS011;6857;53.484;10.216;2022-12-07T01:42:09;13.93;;;9.60;;
13571;SDS011;6857;53.484;10.216;2022-12-07T01:45:15;14.70;;;9.57;;
13571;SDS011;6857;53.484;10.216;2022-12-07T01:47:21;13.33;;;8.40;;
13571;SDS011;6857;53.484;10.216;2022-12-07T01:49:47;14.90;;;9.43;;
13571;SDS011;6857;53.484;10.216;2022-12-07T01:52:18;13.60;;;9.27;;
13571;SDS011;6857;53.484;10.216;2022-12-07T01:54:46;12.83;;;9.13;;
13571;SDS011;6857;53.484;10.216;2022-12-07T01:57:13;14.87;;;8.87;;
13571;SDS011;6857;53.484;10.216;2022-12-07T01:59:40;14.63;;;9.63;;
13571;SDS011;6857;53.484;10.216;2022-12-07T02:02:07;14.00;;;8.43;;
13571;SDS011;6857;53.484;10.216;2022-12-07T02:04:35;16.67;;;9.57;;
13571;SDS011;6857;53.484;10.216;2022-12-07T02:07:02;14.10;;;8.47;;
13571;SDS011;6857;53.484;10.216;2022-12-07T02:09:29;16.07;;;8.63;;
13571;SDS011;6857;53.484;10.216;2022-12-07T02:11:54;12.63;;;8.40;;
13571;SDS011;6857;53.484;10.216;2022-12-07T02:14:21;13.87;;;8.37;;
13571;SDS011;6857;53.484;10.216;2022-12-07T02:27:06;16.80;;;7.80;;
13571;SDS011;6857;53.484;10.216;2022-12-07T02:29:38;14.07;;;7.60;;
13571;SDS011;6857;53.484;10.216;2022-12-07T02:32:20;12.60;;;7.27;;
13571;SDS011;6857;53.484;10.216;2022-12-07T02:34:56;13.47;;;6.77;;
13571;SDS011;6857;53.484;10.216;2022-12-07T02:37:30;12.13;;;7.67;;
13571;SDS011;6857;53.484;10.216;2022-12-07T02:40:01;12.93;;;7.27;;
13571;SDS011;6857;53.484;10.216;2022-12-07T02:42:32;10.97;;;6.43;;
13571;SDS011;6857;53.484;10.216;2022-12-07T02:44:59;10.60;;;7.10;;
13571;SDS011;6857;53.484;10.216;2022-12-07T02:47:26;11.43;;;7.03;;
13571;SDS011;6857;53.484;10.216;2022-12-07T02:49:54;12.37;;;7.17;;
13571;SDS011;6857;53.484;10.216;2022-12-07T02:52:20;11.70;;;7.03;;
13571;SDS011;6857;53.484;10.216;2022-12-07T02:54:46;13.97;;;8.10;;
13571;SDS011;6857;53.484;10.216;2022-12-07T02:57:26;13.60;;;7.60;;
13571;SDS011;6857;53.484;10.216;2022-12-07T03:00:09;12.87;;;7.03;;
13571;SDS011;6857;53.484;10.216;2022-12-07T03:02:38;12.87;;;6.77;;
13571;SDS011;6857;53.484;10.216;2022-12-07T03:05:30;12.10;;;5.33;;
13571;SDS011;6857;53.484;10.216;2022-12-07T03:15:55;8.47;;;5.00;;
13571;SDS011;6857;53.484;10.216;2022-12-07T03:18:25;9.37;;;4.67;;
13571;SDS011;6857;53.484;10.216;2022-12-07T03:20:52;9.80;;;4.67;;
13571;SDS011;6857;53.484;10.216;2022-12-07T03:23:19;8.43;;;5.70;;
13571;SDS011;6857;53.484;10.216;2022-12-07T03:25:46;10.37;;;5.47;;
13571;SDS011;6857;53.484;10.216;2022-12-07T03:28:13;9.30;;;5.00;;
13571;SDS011;6857;53.484;10.216;2022-12-07T03:33:29;12.53;;;4.97;;
13571;SDS011;6857;53.484;10.216;2022-12-07T03:36:00;7.10;;;4.97;;
13571;SDS011;6857;53.484;10.216;2022-12-07T03:38:29;6.93;;;4.77;;
13571;SDS011;6857;53.484;10.216;2022-12-07T03:41:00;7.70;;;4.23;;
13571;SDS011;6857;53.484;10.216;2022-12-07T03:43:29;9.00;;;4.80;;
13571;SDS011;6857;53.484;10.216;2022-12-07T03:48:35;10.03;;;4.70;;
13571;SDS011;6857;53.484;10.216;2022-12-07T03:51:06;5.40;;;3.80;;
13571;SDS011;6857;53.484;10.216;2022-12-07T03:53:40;5.73;;;3.80;;
13571;SDS011;6857;53.484;10.216;2022-12-07T03:56:08;6.20;;;3.37;;
13571;SDS011;6857;53.484;10.216;2022-12-07T03:58:34;8.53;;;4.10;;
13571;SDS011;6857;53.484;10.216;2022-12-07T04:01:00;7.67;;;3.83;;
13571;SDS011;6857;53.484;10.216;2022-12-07T04:03:26;6.73;;;3.23;;
13571;SDS011;6857;53.484;10.216;2022-12-07T04:05:53;8.07;;;3.40;;
13571;SDS011;6857;53.484;10.216;2022-12-07T04:08:19;5.40;;;2.90;;
13571;SDS011;6857;53.484;10.216;2022-12-07T04:10:45;9.93;;;3.20;;
13571;SDS011;6857;53.484;10.216;2022-12-07T04:13:11;6.90;;;3.03;;
13571;SDS011;6857;53.484;10.216;2022-12-07T04:15:37;5.07;;;2.90;;
13571;SDS011;6857;53.484;10.216;2022-12-07T04:18:03;5.87;;;2.77;;
13571;SDS011;6857;53.484;10.216;2022-12-07T04:20:29;5.60;;;2.33;;
13571;SDS011;6857;53.484;10.216;2022-12-07T04:22:55;2.67;;;1.87;;
13571;SDS011;6857;53.484;10.216;2022-12-07T04:25:20;7.30;;;2.80;;
13571;SDS011;6857;53.484;10.216;2022-12-07T04:27:46;5.07;;;2.67;;
13571;SDS011;6857;53.484;10.216;2022-12-07T04:30:12;4.20;;;2.40;;
13571;SDS011;6857;53.484;10.216;2022-12-07T04:32:38;5.13;;;2.50;;
13571;SDS011;6857;53.484;10.216;2022-12-07T04:35:04;2.77;;;2.10;;
13571;SDS011;6857;53.484;10.216;2022-12-07T04:37:30;7.00;;;2.90;;
13571;SDS011;6857;53.484;10.216;2022-12-07T04:39:56;5.37;;;2.73;;
13571;SDS011;6857;53.484;10.216;2022-12-07T04:42:22;3.27;;;2.57;;
13571;SDS011;6857;53.484;10.216;2022-12-07T04:44:48;3.57;;;2.43;;
13571;SDS011;6857;53.484;10.216;2022-12-07T04:47:15;3.97;;;2.07;;
13571;SDS011;6857;53.484;10.216;2022-12-07T04:49:41;4.23;;;2.40;;
13571;SDS011;6857;53.484;10.216;2022-12-07T04:52:07;4.03;;;1.97;;
13571;SDS011;6857;53.484;10.216;2022-12-07T04:54:33;4.67;;;2.73;;
13571;SDS011;6857;53.484;10.216;2022-12-07T04:56:59;5.83;;;2.33;;
13571;SDS011;6857;53.484;10.216;2022-12-07T04:59:25;3.07;;;2.27;;
13571;SDS011;6857;53.484;10.216;2022-12-07T05:01:51;3.83;;;2.20;;
13571;SDS011;6857;53.484;10.216;2022-12-07T05:04:17;4.07;;;1.80;;
13571;SDS011;6857;53.484;10.216;2022-12-07T05:06:43;3.67;;;2.20;;
13571;SDS011;6857;53.484;10.216;2022-12-07T05:09:09;3.47;;;2.30;;
13571;SDS011;6857;53.484;10.216;2022-12-07T05:11:35;3.37;;;2.30;;
13571;SDS011;6857;53.484;10.216;2022-12-07T05:14:23;6.47;;;2.20;;
13571;SDS011;6857;53.484;10.216;2022-12-07T05:16:49;5.27;;;2.83;;
13571;SDS011;6857;53.484;10.216;2022-12-07T05:19:15;4.67;;;2.80;;
13571;SDS011;6857;53.484;10.216;2022-12-07T05:21:41;5.20;;;2.70;;
13571;SDS011;6857;53.484;10.216;2022-12-07T05:24:08;4.20;;;2.57;;
13571;SDS011;6857;53.484;10.216;2022-12-07T05:26:35;5.23;;;2.53;;
13571;SDS011;6857;53.484;10.216;2022-12-07T05:29:01;6.03;;;2.83;;
13571;SDS011;6857;53.484;10.216;2022-12-07T05:31:27;4.67;;;3.13;;
13571;SDS011;6857;53.484;10.216;2022-12-07T05:33:53;6.57;;;3.10;;
13571;SDS011;6857;53.484;10.216;2022-12-07T05:36:19;6.00;;;2.97;;
13571;SDS011;6857;53.484;10.216;2022-12-07T05:38:45;7.70;;;3.07;;
13571;SDS011;6857;53.484;10.216;2022-12-07T05:41:12;5.57;;;2.90;;
13571;SDS011;6857;53.484;10.216;2022-12-07T05:43:58;5.60;;;3.00;;
13571;SDS011;6857;53.484;10.216;2022-12-07T05:46:24;8.77;;;3.00;;
13571;SDS011;6857;53.484;10.216;2022-12-07T05:48:50;6.77;;;2.93;;
13571;SDS011;6857;53.484;10.216;2022-12-07T05:51:17;4.17;;;2.60;;
13571;SDS011;6857;53.484;10.216;2022-12-07T05:53:43;7.70;;;2.80;;
13571;SDS011;6857;53.484;10.216;2022-12-07T05:56:09;5.67;;;3.10;;
13571;SDS011;6857;53.484;10.216;2022-12-07T05:58:35;7.20;;;3.30;;
13571;SDS011;6857;53.484;10.216;2022-12-07T06:01:20;10.07;;;2.63;;
13571;SDS011;6857;53.484;10.216;2022-12-07T06:03:46;6.27;;;2.80;;
13571;SDS011;6857;53.484;10.216;2022-12-07T06:06:12;4.80;;;2.47;;
13571;SDS011;6857;53.484;10.216;2022-12-07T06:08:38;5.27;;;2.70;;
13571;SDS011;6857;53.484;10.216;2022-12-07T06:11:04;4.43;;;2.57;;
13571;SDS011;6857;53.484;10.216;2022-12-07T06:13:48;4.50;;;2.90;;
13571;SDS011;6857;53.484;10.216;2022-12-07T06:16:14;4.10;;;2.43;;
13571;SDS011;6857;53.484;10.216;2022-12-07T06:18:40;4.80;;;3.10;;
13571;SDS011;6857;53.484;10.216;2022-12-07T06:21:06;6.10;;;2.70;;
13571;SDS011;6857;53.484;10.216;2022-12-07T06:23:32;5.93;;;2.30;;
13571;SDS011;6857;53.484;10.216;2022-12-07T06:25:58;3.97;;;2.77;;
13571;SDS011;6857;53.484;10.216;2022-12-07T06:28:24;5.20;;;3.00;;
13571;SDS011;6857;53.484;10.216;2022-12-07T06:30:59;5.47;;;2.90;;
13571;SDS011;6857;53.484;10.216;2022-12-07T06:33:25;3.30;;;2.30;;
13571;SDS011;6857;53.484;10.216;2022-12-07T06:35:51;5.63;;;2.57;;
13571;SDS011;6857;53.484;10.216;2022-12-07T06:38:17;5.93;;;2.63;;
13571;SDS011;6857;53.484;10.216;2022-12-07T06:40:43;4.67;;;2.63;;
13571;SDS011;6857;53.484;10.216;2022-12-07T06:43:09;5.87;;;2.77;;
13571;SDS011;6857;53.484;10.216;2022-12-07T06:45:35;5.10;;;2.87;;
13571;SDS011;6857;53.484;10.216;2022-12-07T06:48:01;7.70;;;2.60;;
13571;SDS011;6857;53.484;10.216;2022-12-07T06:50:27;4.90;;;2.93;;
13571;SDS011;6857;53.484;10.216;2022-12-07T06:52:53;7.07;;;2.80;;
13571;SDS011;6857;53.484;10.216;2022-12-07T06:55:19;4.40;;;2.43;;
13571;SDS011;6857;53.484;10.216;2022-12-07T06:57:45;3.97;;;2.57;;
13571;SDS011;6857;53.484;10.216;2022-12-07T07:00:11;4.70;;;2.73;;
13571;SDS011;6857;53.484;10.216;2022-12-07T07:02:37;4.20;;;2.57;;
13571;SDS011;6857;53.484;10.216;2022-12-07T07:05:03;5.93;;;2.60;;
13571;SDS011;6857;53.484;10.216;2022-12-07T07:07:29;4.50;;;2.90;;
13571;SDS011;6857;53.484;10.216;2022-12-07T07:09:55;4.93;;;3.70;;
13571;SDS011;6857;53.484;10.216;2022-12-07T07:12:21;7.77;;;4.20;;
13571;SDS011;6857;53.484;10.216;2022-12-07T07:14:47;3.97;;;2.90;;
13571;SDS011;6857;53.484;10.216;2022-12-07T07:17:13;3.70;;;2.67;;
13571;SDS011;6857;53.484;10.216;2022-12-07T07:19:39;5.67;;;2.60;;
13571;SDS011;6857;53.484;10.216;2022-12-07T07:22:05;5.53;;;2.90;;
13571;SDS011;6857;53.484;10.216;2022-12-07T07:24:31;4.13;;;2.13;;
13571;SDS011;6857;53.484;10.216;2022-12-07T07:26:57;2.60;;;1.73;;
13571;SDS011;6857;53.484;10.216;2022-12-07T07:29:23;7.83;;;2.73;;
13571;SDS011;6857;53.484;10.216;2022-12-07T07:31:49;4.00;;;1.80;;
13571;SDS011;6857;53.484;10.216;2022-12-07T07:34:15;7.03;;;2.23;;
13571;SDS011;6857;53.484;10.216;2022-12-07T07:36:41;7.47;;;2.30;;
13571;SDS011;6857;53.484;10.216;2022-12-07T07:39:07;2.70;;;1.70;;
13571;SDS011;6857;53.484;10.216;2022-12-07T07:41:32;4.13;;;2.27;;
13571;SDS011;6857;53.484;10.216;2022-12-07T07:43:58;5.20;;;2.23;;
13571;SDS011;6857;53.484;10.216;2022-12-07T07:46:24;3.20;;;2.20;;
13571;SDS011;6857;53.484;10.216;2022-12-07T07:48:50;5.73;;;2.10;;
13571;SDS011;6857;53.484;10.216;2022-12-07T07:51:16;5.90;;;2.10;;
13571;SDS011;6857;53.484;10.216;2022-12-07T07:53:42;2.67;;;1.83;;
13571;SDS011;6857;53.484;10.216;2022-12-07T07:56:08;5.43;;;2.27;;
13571;SDS011;6857;53.484;10.216;2022-12-07T07:58:34;3.43;;;1.67;;
13571;SDS011;6857;53.484;10.216;2022-12-07T08:01:04;3.37;;;2.17;;
13571;SDS011;6857;53.484;10.216;2022-12-07T08:03:30;4.07;;;2.07;;
13571;SDS011;6857;53.484;10.216;2022-12-07T08:05:56;4.73;;;2.20;;
13571;SDS011;6857;53.484;10.216;2022-12-07T08:08:22;5.70;;;2.07;;
13571;SDS011;6857;53.484;10.216;2022-12-07T08:10:48;2.67;;;1.73;;
13571;SDS011;6857;53.484;10.216;2022-12-07T08:13:15;2.70;;;1.87;;
13571;SDS011;6857;53.484;10.216;2022-12-07T08:15:43;2.87;;;1.33;;
13571;SDS011;6857;53.484;10.216;2022-12-07T08:18:09;5.07;;;1.40;;
13571;SDS011;6857;53.484;10.216;2022-12-07T08:20:36;4.30;;;1.53;;
13571;SDS011;6857;53.484;10.216;2022-12-07T08:23:03;7.10;;;1.43;;
13571;SDS011;6857;53.484;10.216;2022-12-07T08:25:29;2.43;;;1.17;;
13571;SDS011;6857;53.484;10.216;2022-12-07T08:27:55;5.40;;;1.70;;
13571;SDS011;6857;53.484;10.216;2022-12-07T08:30:21;6.87;;;1.30;;
13571;SDS011;6857;53.484;10.216;2022-12-07T08:32:47;6.97;;;1.90;;
13571;SDS011;6857;53.484;10.216;2022-12-07T08:35:14;2.57;;;1.40;;
13571;SDS011;6857;53.484;10.216;2022-12-07T08:37:40;5.63;;;1.80;;
13571;SDS011;6857;53.484;10.216;2022-12-07T08:40:06;2.37;;;1.27;;
13571;SDS011;6857;53.484;10.216;2022-12-07T08:42:33;3.13;;;1.43;;
13571;SDS011;6857;53.484;10.216;2022-12-07T08:45:06;3.80;;;1.40;;
13571;SDS011;6857;53.484;10.216;2022-12-07T08:47:32;3.67;;;1.73;;
13571;SDS011;6857;53.484;10.216;2022-12-07T08:49:59;5.10;;;1.67;;
13571;SDS011;6857;53.484;10.216;2022-12-07T08:52:28;4.83;;;1.63;;
13571;SDS011;6857;53.484;10.216;2022-12-07T08:54:54;4.63;;;1.90;;
13571;SDS011;6857;53.484;10.216;2022-12-07T08:57:20;5.63;;;1.70;;
13571;SDS011;6857;53.484;10.216;2022-12-07T08:59:46;3.70;;;1.67;;
13571;SDS011;6857;53.484;10.216;2022-12-07T09:02:12;5.97;;;1.40;;
13571;SDS011;6857;53.484;10.216;2022-12-07T09:04:38;3.70;;;1.60;;
13571;SDS011;6857;53.484;10.216;2022-12-07T09:07:04;4.90;;;1.53;;
13571;SDS011;6857;53.484;10.216;2022-12-07T09:09:31;3.50;;;1.60;;
13571;SDS011;6857;53.484;10.216;2022-12-07T09:11:56;5.53;;;2.10;;
13571;SDS011;6857;53.484;10.216;2022-12-07T09:14:22;4.60;;;2.03;;
13571;SDS011;6857;53.484;10.216;2022-12-07T09:16:48;4.73;;;2.20;;
13571;SDS011;6857;53.484;10.216;2022-12-07T09:19:15;5.10;;;2.10;;
13571;SDS011;6857;53.484;10.216;2022-12-07T09:21:41;3.90;;;1.57;;
13571;SDS011;6857;53.484;10.216;2022-12-07T09:24:07;7.30;;;3.47;;
13571;SDS011;6857;53.484;10.216;2022-12-07T09:26:34;5.33;;;2.23;;
13571;SDS011;6857;53.484;10.216;2022-12-07T09:29:00;5.43;;;1.70;;
13571;SDS011;6857;53.484;10.216;2022-12-07T09:31:26;8.63;;;2.03;;
13571;SDS011;6857;53.484;10.216;2022-12-07T09:33:55;3.90;;;1.63;;
13571;SDS011;6857;53.484;10.216;2022-12-07T09:36:21;3.97;;;1.80;;
13571;SDS011;6857;53.484;10.216;2022-12-07T09:38:47;5.73;;;1.87;;
13571;SDS011;6857;53.484;10.216;2022-12-07T09:41:13;8.03;;;2.10;;
13571;SDS011;6857;53.484;10.216;2022-12-07T09:43:40;3.00;;;1.53;;
13571;SDS011;6857;53.484;10.216;2022-12-07T09:46:08;6.47;;;1.57;;
13571;SDS011;6857;53.484;10.216;2022-12-07T09:48:37;6.37;;;1.87;;
13571;SDS011;6857;53.484;10.216;2022-12-07T09:51:18;4.43;;;1.70;;
13571;SDS011;6857;53.484;10.216;2022-12-07T09:53:45;6.47;;;1.50;;
13571;SDS011;6857;53.484;10.216;2022-12-07T09:56:13;5.07;;;1.40;;
13571;SDS011;6857;53.484;10.216;2022-12-07T09:58:39;5.03;;;1.20;;
13571;SDS011;6857;53.484;10.216;2022-12-07T10:03:35;4.13;;;1.83;;
13571;SDS011;6857;53.484;10.216;2022-12-07T10:06:01;5.53;;;1.40;;
13571;SDS011;6857;53.484;10.216;2022-12-07T10:08:27;2.43;;;1.30;;
13571;SDS011;6857;53.484;10.216;2022-12-07T10:10:55;7.37;;;1.87;;
13571;SDS011;6857;53.484;10.216;2022-12-07T10:14:10;7.30;;;1.80;;
13571;SDS011;6857;53.484;10.216;2022-12-07T10:18:49;6.47;;;1.63;;
13571;SDS011;6857;53.484;10.216;2022-12-07T10:21:17;6.27;;;2.10;;
13571;SDS011;6857;53.484;10.216;2022-12-07T10:26:29;2.63;;;1.20;;
13571;SDS011;6857;53.484;10.216;2022-12-07T10:28:56;6.60;;;1.30;;
13571;SDS011;6857;53.484;10.216;2022-12-07T10:31:24;6.13;;;2.20;;
13571;SDS011;6857;53.484;10.216;2022-12-07T10:36:20;4.80;;;1.20;;
13571;SDS011;6857;53.484;10.216;2022-12-07T10:38:47;2.90;;;1.07;;
13571;SDS011;6857;53.484;10.216;2022-12-07T10:41:14;5.20;;;1.50;;
13571;SDS011;6857;53.484;10.216;2022-12-07T10:43:52;7.37;;;1.23;;
13571;SDS011;6857;53.484;10.216;2022-12-07T10:54:07;6.40;;;1.63;;
13571;SDS011;6857;53.484;10.216;2022-12-07T10:56:42;5.63;;;1.00;;
13571;SDS011;6857;53.484;10.216;2022-12-07T11:01:47;6.50;;;1.10;;
13571;SDS011;6857;53.484;10.216;2022-12-07T11:07:06;3.53;;;0.97;;
13571;SDS011;6857;53.484;10.216;2022-12-07T11:09:43;4.70;;;1.03;;
13571;SDS011;6857;53.484;10.216;2022-12-07T11:12:38;3.27;;;1.33;;
13571;SDS011;6857;53.484;10.216;2022-12-07T11:15:04;5.03;;;1.20;;
13571;SDS011;6857;53.484;10.216;2022-12-07T11:17:41;4.00;;;1.40;;
13571;SDS011;6857;53.484;10.216;2022-12-07T11:20:14;4.70;;;1.30;;
13571;SDS011;6857;53.484;10.216;2022-12-07T11:22:51;1.53;;;1.10;;
13571;SDS011;6857;53.484;10.216;2022-12-07T11:30:38;5.20;;;1.17;;
13571;SDS011;6857;53.484;10.216;2022-12-07T11:33:14;3.83;;;1.20;;
13571;SDS011;6857;53.484;10.216;2022-12-07T11:35:45;3.43;;;1.03;;
13571;SDS011;6857;53.484;10.216;2022-12-07T11:38:15;2.57;;;1.00;;
13571;SDS011;6857;53.484;10.216;2022-12-07T11:40:45;5.30;;;1.60;;
13571;SDS011;6857;53.484;10.216;2022-12-07T11:43:49;4.67;;;1.63;;
13571;SDS011;6857;53.484;10.216;2022-12-07T11:46:08;1.93;;;0.80;;
13571;SDS011;6857;53.484;10.216;2022-12-07T11:48:46;6.47;;;1.33;;
13571;SDS011;6857;53.484;10.216;2022-12-07T11:51:15;5.27;;;1.40;;
13571;SDS011;6857;53.484;10.216;2022-12-07T11:53:45;8.17;;;1.17;;
13571;SDS011;6857;53.484;10.216;2022-12-07T11:56:13;3.67;;;1.30;;
13571;SDS011;6857;53.484;10.216;2022-12-07T12:03:38;6.33;;;1.17;;
13571;SDS011;6857;53.484;10.216;2022-12-07T12:06:06;4.00;;;1.30;;
13571;SDS011;6857;53.484;10.216;2022-12-07T12:12:20;5.53;;;1.40;;
13571;SDS011;6857;53.484;10.216;2022-12-07T12:17:07;4.90;;;1.13;;
13571;SDS011;6857;53.484;10.216;2022-12-07T12:19:45;6.60;;;1.20;;
13571;SDS011;6857;53.484;10.216;2022-12-07T12:22:23;8.10;;;1.50;;
13571;SDS011;6857;53.484;10.216;2022-12-07T12:24:52;2.57;;;1.20;;
13571;SDS011;6857;53.484;10.216;2022-12-07T12:29:51;5.70;;;1.37;;
13571;SDS011;6857;53.484;10.216;2022-12-07T12:32:22;5.57;;;1.40;;
13571;SDS011;6857;53.484;10.216;2022-12-07T12:42:46;5.57;;;1.40;;
13571;SDS011;6857;53.484;10.216;2022-12-07T12:45:20;8.27;;;1.30;;
13571;SDS011;6857;53.484;10.216;2022-12-07T12:50:33;7.07;;;1.17;;
13571;SDS011;6857;53.484;10.216;2022-12-07T12:53:03;10.73;;;1.87;;
13571;SDS011;6857;53.484;10.216;2022-12-07T13:00:44;5.63;;;1.37;;
13571;SDS011;6857;53.484;10.216;2022-12-07T13:08:44;7.03;;;1.50;;
13571;SDS011;6857;53.484;10.216;2022-12-07T13:11:20;5.73;;;1.00;;
13571;SDS011;6857;53.484;10.216;2022-12-07T13:13:50;4.27;;;1.37;;
13571;SDS011;6857;53.484;10.216;2022-12-07T13:16:36;2.43;;;1.27;;
13571;SDS011;6857;53.484;10.216;2022-12-07T13:19:02;3.83;;;1.03;;
13571;SDS011;6857;53.484;10.216;2022-12-07T13:23:56;3.97;;;1.33;;
13571;SDS011;6857;53.484;10.216;2022-12-07T13:26:26;5.47;;;1.37;;
13571;SDS011;6857;53.484;10.216;2022-12-07T13:29:05;5.07;;;1.63;;
13571;SDS011;6857;53.484;10.216;2022-12-07T13:31:37;5.13;;;1.30;;
13571;SDS011;6857;53.484;10.216;2022-12-07T13:34:04;6.17;;;1.50;;
13571;SDS011;6857;53.484;10.216;2022-12-07T13:36:36;6.57;;;1.40;;
13571;SDS011;6857;53.484;10.216;2022-12-07T13:39:19;5.70;;;1.50;;
13571;SDS011;6857;53.484;10.216;2022-12-07T13:41:53;4.83;;;1.20;;
13571;SDS011;6857;53.484;10.216;2022-12-07T13:44:20;9.53;;;1.10;;
13571;SDS011;6857;53.484;10.216;2022-12-07T13:49:38;5.47;;;1.30;;
13571;SDS011;6857;53.484;10.216;2022-12-07T13:57:25;7.13;;;1.73;;
13571;SDS011;6857;53.484;10.216;2022-12-07T13:59:51;6.53;;;1.47;;
13571;SDS011;6857;53.484;10.216;2022-12-07T14:02:27;9.90;;;1.63;;
13571;SDS011;6857;53.484;10.216;2022-12-07T14:07:58;4.47;;;1.20;;
13571;SDS011;6857;53.484;10.216;2022-12-07T14:12:53;7.40;;;1.40;;
13571;SDS011;6857;53.484;10.216;2022-12-07T14:15:21;6.17;;;1.43;;
13571;SDS011;6857;53.484;10.216;2022-12-07T14:17:51;5.43;;;1.80;;
13571;SDS011;6857;53.484;10.216;2022-12-07T14:23:21;8.93;;;1.90;;
13571;SDS011;6857;53.484;10.216;2022-12-07T14:25:50;6.03;;;1.90;;
13571;SDS011;6857;53.484;10.216;2022-12-07T14:28:27;9.77;;;2.00;;
13571;SDS011;6857;53.484;10.216;2022-12-07T14:30:53;6.23;;;2.00;;
13571;SDS011;6857;53.484;10.216;2022-12-07T14:33:19;6.57;;;2.30;;
13571;SDS011;6857;53.484;10.216;2022-12-07T14:35:46;5.67;;;1.80;;
13571;SDS011;6857;53.484;10.216;2022-12-07T14:38:14;6.73;;;1.40;;
13571;SDS011;6857;53.484;10.216;2022-12-07T14:40:40;5.27;;;1.33;;
13571;SDS011;6857;53.484;10.216;2022-12-07T14:43:09;5.37;;;1.63;;
13571;SDS011;6857;53.484;10.216;2022-12-07T14:45:35;5.23;;;1.30;;
13571;SDS011;6857;53.484;10.216;2022-12-07T14:48:01;4.33;;;1.53;;
13571;SDS011;6857;53.484;10.216;2022-12-07T14:50:27;6.00;;;1.67;;
13571;SDS011;6857;53.484;10.216;2022-12-07T14:53:00;4.77;;;1.43;;
13571;SDS011;6857;53.484;10.216;2022-12-07T14:55:28;7.67;;;1.50;;
13571;SDS011;6857;53.484;10.216;2022-12-07T14:57:55;5.80;;;1.00;;
13571;SDS011;6857;53.484;10.216;2022-12-07T15:00:22;3.00;;;1.40;;
13571;SDS011;6857;53.484;10.216;2022-12-07T15:02:49;8.27;;;1.60;;
13571;SDS011;6857;53.484;10.216;2022-12-07T15:05:15;6.70;;;1.40;;
13571;SDS011;6857;53.484;10.216;2022-12-07T15:07:41;10.53;;;2.80;;
13571;SDS011;6857;53.484;10.216;2022-12-07T15:10:27;6.13;;;1.93;;
13571;SDS011;6857;53.484;10.216;2022-12-07T15:12:55;4.27;;;1.70;;
13571;SDS011;6857;53.484;10.216;2022-12-07T15:15:41;4.47;;;2.30;;
13571;SDS011;6857;53.484;10.216;2022-12-07T15:18:07;7.27;;;2.73;;
13571;SDS011;6857;53.484;10.216;2022-12-07T15:20:33;9.50;;;3.93;;
13571;SDS011;6857;53.484;10.216;2022-12-07T15:22:59;7.23;;;3.27;;
13571;SDS011;6857;53.484;10.216;2022-12-07T15:25:25;5.37;;;2.37;;
13571;SDS011;6857;53.484;10.216;2022-12-07T15:27:51;3.27;;;1.53;;
13571;SDS011;6857;53.484;10.216;2022-12-07T15:30:17;6.03;;;1.63;;
13571;SDS011;6857;53.484;10.216;2022-12-07T15:32:43;4.80;;;1.80;;
13571;SDS011;6857;53.484;10.216;2022-12-07T15:35:09;6.70;;;2.17;;
13571;SDS011;6857;53.484;10.216;2022-12-07T15:37:35;4.43;;;1.70;;
13571;SDS011;6857;53.484;10.216;2022-12-07T15:40:01;4.27;;;1.53;;
13571;SDS011;6857;53.484;10.216;2022-12-07T15:42:27;4.90;;;1.70;;
13571;SDS011;6857;53.484;10.216;2022-12-07T15:44:53;7.23;;;1.67;;
13571;SDS011;6857;53.484;10.216;2022-12-07T15:47:31;5.97;;;2.30;;
13571;SDS011;6857;53.484;10.216;2022-12-07T15:49:59;6.67;;;2.10;;
13571;SDS011;6857;53.484;10.216;2022-12-07T15:52:25;3.80;;;1.37;;
13571;SDS011;6857;53.484;10.216;2022-12-07T15:54:51;4.03;;;1.70;;
13571;SDS011;6857;53.484;10.216;2022-12-07T15:57:17;6.30;;;2.03;;
13571;SDS011;6857;53.484;10.216;2022-12-07T15:59:43;2.97;;;1.30;;
13571;SDS011;6857;53.484;10.216;2022-12-07T16:02:09;4.40;;;1.57;;
13571;SDS011;6857;53.484;10.216;2022-12-07T16:04:35;6.40;;;1.57;;
13571;SDS011;6857;53.484;10.216;2022-12-07T16:07:02;6.27;;;1.20;;
13571;SDS011;6857;53.484;10.216;2022-12-07T16:09:28;4.93;;;1.50;;
13571;SDS011;6857;53.484;10.216;2022-12-07T16:11:54;2.43;;;1.20;;
13571;SDS011;6857;53.484;10.216;2022-12-07T16:14:20;4.60;;;1.37;;
13571;SDS011;6857;53.484;10.216;2022-12-07T16:16:46;3.97;;;1.03;;
13571;SDS011;6857;53.484;10.216;2022-12-07T16:19:12;3.73;;;1.37;;
13571;SDS011;6857;53.484;10.216;2022-12-07T16:21:38;3.37;;;1.20;;
13571;SDS011;6857;53.484;10.216;2022-12-07T16:24:04;2.60;;;1.30;;
13571;SDS011;6857;53.484;10.216;2022-12-07T16:26:31;5.77;;;1.40;;
13571;SDS011;6857;53.484;10.216;2022-12-07T16:28:57;3.20;;;1.10;;
13571;SDS011;6857;53.484;10.216;2022-12-07T16:31:24;4.57;;;0.97;;
13571;SDS011;6857;53.484;10.216;2022-12-07T16:33:51;3.17;;;1.50;;
13571;SDS011;6857;53.484;10.216;2022-12-07T16:36:17;2.80;;;1.37;;